Search for airport 
image banner adimage banner ad
image banner ad

SIPJ - Fazenda Marreco Airport

Located in São Gonçalo Do Abaeté, Brazil

ICAO - SIPJ, IATA -

Data provided by Airmate  

General information

Coordinates: S29°5'8" W53°51'56"
Elevation is 1515 feet MSL.
Magnetic variation is -15° East
View others Airports in Rio Grande do Sul

Operational data

Open for public use
Current time UTC:
Current local time:
Weather at : SBSM - Santa Maria Airport ( 71 km )
METAR: SBSM 021600Z 11012KT 9999 FEW030 31/23 Q1006
TAF: TAF SBSM 020900Z 0212/0224 11008KT 9999 FEW030TCU TX28/0218Z TN22/0223Z PROB40 0218/0222 06008KT 6000 TSRA SCT012 FEW025CB RMK PAY
View NOTAMs / SUP AIP / TFR affecting this airport [VIEW]
Communications frequencies: [VIEW]

Runways:

RWY identifierQFULength (ft)Width (ft)SurfaceLDA (ft)
06229682GRASS
24229682GRASS

Airport contact information

Address: São Gonçalo Do Abaeté Brazil

Satellite view of SIPJ